Time;durP1;ratioP1;P1;durP2;ratioP2;P2;SDS_P1;SDS_P2;PMS_P1;PMS_P2;Temp;Humidity;BMP_temperature;BMP_pressure;BME280_temperature;BME280_humidity;BME280_pressure;Samples;Min_cycle;Max_cycle;Signal;HPM_P1;HPM_P2
2023/03/14 00:02:18;;;;;;;;;;;;;;;9.60;82.10;96216.16;5078678;28;19931;-53
2023/03/14 00:04:46;;;;;;;;;;;;;;;9.55;81.98;96226.44;5086621;28;19931;-55
2023/03/14 00:07:14;;;;;;;;;;;;;;;9.54;81.90;96235.72;5082148;28;20286;-54
2023/03/14 00:09:42;;;;;;;;;;;;;;;9.57;81.67;96235.81;5083578;28;19929;-55
2023/03/14 00:12:11;;;;;;;;;;;;;;;9.60;81.25;96237.06;5105823;28;19924;-53
2023/03/14 00:14:39;;;;;;;;;;;;;;;9.56;81.69;96234.22;5084429;28;19928;-55
2023/03/14 00:17:06;;;;;;;;;;;;;;;9.60;81.81;96245.19;5091658;28;19924;-54
2023/03/14 00:19:34;;;;;;;;;;;;;;;9.58;81.54;96231.94;5090328;28;19924;-57
2023/03/14 00:22:02;;;;;;;;;;;;;;;9.63;81.31;96244.47;5081476;28;20370;-54
2023/03/14 00:24:30;;;;;;;;;;;;;;;9.57;81.53;96245.88;5081041;28;19925;-54
2023/03/14 00:26:57;;;;;;;;;;;;;;;9.52;81.55;96249.59;5092660;28;19928;-54
2023/03/14 00:29:26;;;;;;;;;;;;;;;9.54;80.85;96254.69;5094821;28;19924;-54
2023/03/14 00:31:54;;;;;;;;;;;;;;;9.59;80.74;96254.47;5088780;28;19966;-54
2023/03/14 00:34:22;;;;;;;;;;;;;;;9.62;80.42;96251.81;5089637;28;19924;-55
2023/03/14 00:36:50;;;;;;;;;;;;;;;9.62;80.42;96270.00;5078389;28;19928;-54
2023/03/14 00:39:18;;;;;;;;;;;;;;;9.62;80.41;96275.44;5084974;28;19936;-53
2023/03/14 00:41:47;;;;;;;;;;;;;;;9.60;80.43;96277.72;5083447;28;19932;-54
2023/03/14 00:44:15;;;;;;;;;;;;;;;9.57;80.35;96279.19;5087948;28;19932;-55
2023/03/14 00:46:44;;;;;;;;;;;;;;;9.57;80.34;96278.41;5102639;28;19931;-54
2023/03/14 00:49:12;;;;;;;;;;;;;;;9.55;80.11;96286.09;5098631;28;19924;-54
2023/03/14 00:51:39;;;;;;;;;;;;;;;9.51;80.09;96301.47;5078552;28;19973;-55
2023/03/14 00:54:07;;;;;;;;;;;;;;;9.54;79.21;96298.06;5077736;28;20451;-56
2023/03/14 00:56:35;;;;;;;;;;;;;;;9.49;79.86;96298.31;5082305;28;19946;-55
2023/03/14 00:59:03;;;;;;;;;;;;;;;9.49;79.83;96311.88;5086935;28;19993;-54
2023/03/14 01:01:30;;;;;;;;;;;;;;;9.49;79.69;96309.16;5083318;28;19931;-57
2023/03/14 01:04:00;;;;;;;;;;;;;;;9.52;79.18;96297.63;5083235;28;19928;-54
2023/03/14 01:06:28;;;;;;;;;;;;;;;9.49;79.17;96290.97;5082228;28;19928;-54
2023/03/14 01:08:56;;;;;;;;;;;;;;;9.59;78.58;96292.41;5086613;28;19924;-54
2023/03/14 01:11:27;;;;;;;;;;;;;;;9.52;78.57;96279.41;5087004;28;19970;-55
2023/03/14 01:13:57;;;;;;;;;;;;;;;9.48;78.89;96253.34;5078548;28;19924;-55
2023/03/14 01:16:29;;;;;;;;;;;;;;;9.46;78.74;96240.13;5100557;28;19928;-54
2023/03/14 01:19:02;;;;;;;;;;;;;;;9.47;79.06;96238.22;5087192;28;20609;-54
2023/03/14 01:21:30;;;;;;;;;;;;;;;9.48;78.75;96234.38;5087206;28;19924;-54
2023/03/14 01:23:59;;;;;;;;;;;;;;;9.46;79.10;96245.56;5083572;28;20434;-54
2023/03/14 01:26:28;;;;;;;;;;;;;;;9.43;79.51;96236.22;5094552;28;19924;-55
2023/03/14 01:28:55;;;;;;;;;;;;;;;9.53;79.35;96256.59;5082271;28;19924;-57
2023/03/14 01:31:24;;;;;;;;;;;;;;;9.58;78.80;96231.94;5090503;28;19924;-55
2023/03/14 01:33:52;;;;;;;;;;;;;;;9.43;79.46;96211.81;5076575;28;19928;-54
2023/03/14 01:36:21;;;;;;;;;;;;;;;9.41;79.47;96205.94;5091380;28;19924;-55
2023/03/14 01:38:49;;;;;;;;;;;;;;;9.51;79.37;96225.56;5081875;28;19959;-63
2023/03/14 01:41:19;;;;;;;;;;;;;;;9.57;79.02;96219.53;5108108;28;19924;-54
2023/03/14 01:43:47;;;;;;;;;;;;;;;9.45;79.57;96222.31;5087682;28;20381;-58
2023/03/14 01:46:30;;;;;;;;;;;;;;;9.35;79.98;96220.88;5091162;28;19928;-55
2023/03/14 01:49:06;;;;;;;;;;;;;;;9.36;80.35;96230.56;5089254;28;20314;-56
2023/03/14 01:51:37;;;;;;;;;;;;;;;9.34;81.06;96238.25;5095568;28;19931;-55
2023/03/14 01:54:07;;;;;;;;;;;;;;;9.41;80.60;96238.47;5093886;28;19935;-59
2023/03/14 01:56:36;;;;;;;;;;;;;;;9.36;80.91;96240.63;5093088;28;20329;-58
2023/03/14 01:59:04;;;;;;;;;;;;;;;9.42;80.91;96253.59;5104037;28;19953;-58
2023/03/14 02:01:32;;;;;;;;;;;;;;;9.49;80.37;96266.56;5081050;28;19931;-58
2023/03/14 02:04:00;;;;;;;;;;;;;;;9.52;80.43;96259.66;5096111;28;19927;-56
2023/03/14 02:06:30;;;;;;;;;;;;;;;9.43;80.84;96266.03;5102704;28;20008;-56
2023/03/14 02:09:01;;;;;;;;;;;;;;;9.51;80.04;96272.44;5108499;28;19928;-61
2023/03/14 02:11:32;;;;;;;;;;;;;;;9.56;80.32;96269.47;5091758;28;20021;-54
2023/03/14 02:14:04;;;;;;;;;;;;;;;9.51;80.33;96258.88;5094168;28;19930;-56
2023/03/14 02:16:52;;;;;;;;;;;;;;;9.62;79.73;96253.75;5108177;28;20036;-55
2023/03/14 02:19:57;;;;;;;;;;;;;;;9.51;79.87;96244.53;5100927;28;19924;-55
2023/03/14 02:22:40;;;;;;;;;;;;;;;9.47;80.05;96230.09;5094834;28;19932;-54
2023/03/14 02:25:12;;;;;;;;;;;;;;;9.46;80.51;96223.88;5094734;28;19932;-72
2023/03/14 02:27:41;;;;;;;;;;;;;;;9.48;80.29;96218.09;5084534;28;20083;-55
2023/03/14 02:30:09;;;;;;;;;;;;;;;9.54;80.31;96216.75;5112285;28;19955;-58
2023/03/14 02:32:39;;;;;;;;;;;;;;;9.51;80.13;96212.78;5084999;28;19977;-55
2023/03/14 02:35:07;;;;;;;;;;;;;;;9.54;79.85;96211.31;5093082;28;19931;-57
2023/03/14 02:37:39;;;;;;;;;;;;;;;9.39;80.24;96220.97;5081988;28;19947;-65
2023/03/14 02:40:09;;;;;;;;;;;;;;;9.45;80.29;96209.53;5091615;28;19927;-55
2023/03/14 02:42:38;;;;;;;;;;;;;;;9.56;80.25;96200.91;5108037;28;19924;-55
2023/03/14 02:45:25;;;;;;;;;;;;;;;9.49;79.83;96195.31;5094511;28;19923;-61
2023/03/14 02:47:55;;;;;;;;;;;;;;;9.41;80.19;96194.31;5093691;28;19923;-57
2023/03/14 02:50:25;;;;;;;;;;;;;;;9.49;80.05;96201.50;5090244;28;20292;-55
2023/03/14 02:52:54;;;;;;;;;;;;;;;9.40;80.10;96192.75;5090029;28;19927;-55
2023/03/14 02:55:22;;;;;;;;;;;;;;;9.45;80.01;96196.00;5093319;28;19932;-57
2023/03/14 02:57:52;;;;;;;;;;;;;;;9.41;79.80;96186.97;5091869;28;19942;-55
2023/03/14 03:00:21;;;;;;;;;;;;;;;9.36;80.13;96181.78;5106700;28;19935;-55
2023/03/14 03:02:49;;;;;;;;;;;;;;;9.43;80.08;96179.28;5085336;28;19924;-55
2023/03/14 03:05:18;;;;;;;;;;;;;;;9.43;79.98;96173.88;5088373;28;19924;-55
2023/03/14 03:07:46;;;;;;;;;;;;;;;9.34;80.15;96175.94;5100269;28;19946;-56
2023/03/14 03:10:14;;;;;;;;;;;;;;;9.29;80.46;96176.19;5109295;28;20288;-57
2023/03/14 03:12:42;;;;;;;;;;;;;;;9.21;80.76;96179.03;5080842;28;19928;-55
2023/03/14 03:15:11;;;;;;;;;;;;;;;9.25;80.99;96179.91;5109139;28;19928;-55
2023/03/14 03:17:39;;;;;;;;;;;;;;;9.12;81.02;96187.31;5100616;28;19931;-54
2023/03/14 03:20:09;;;;;;;;;;;;;;;9.18;81.00;96180.50;5087278;28;20361;-55
2023/03/14 03:22:40;;;;;;;;;;;;;;;9.10;81.17;96173.31;5101960;28;19924;-55
2023/03/14 03:25:10;;;;;;;;;;;;;;;9.06;81.56;96164.31;5087886;28;19977;-55
2023/03/14 03:27:38;;;;;;;;;;;;;;;9.10;81.17;96162.47;5105118;28;19924;-55
2023/03/14 03:30:06;;;;;;;;;;;;;;;9.12;81.07;96158.28;5090239;28;19924;-55
2023/03/14 03:32:35;;;;;;;;;;;;;;;9.13;81.14;96156.38;5088063;28;19924;-56
2023/03/14 03:35:03;;;;;;;;;;;;;;;9.21;80.85;96150.00;5100786;28;19932;-55
2023/03/14 03:37:34;;;;;;;;;;;;;;;9.15;80.77;96148.69;5102655;28;19928;-56
2023/03/14 03:40:06;;;;;;;;;;;;;;;9.09;80.87;96150.06;5084481;28;19939;-55
2023/03/14 03:42:35;;;;;;;;;;;;;;;9.13;80.69;96161.78;5091023;28;20342;-55
2023/03/14 03:45:04;;;;;;;;;;;;;;;9.10;80.44;96167.88;5089751;28;20281;-55
2023/03/14 03:47:36;;;;;;;;;;;;;;;9.11;80.42;96166.78;5082859;28;20406;-55
2023/03/14 03:50:04;;;;;;;;;;;;;;;9.13;79.98;96161.78;5082058;28;19924;-56
2023/03/14 03:52:32;;;;;;;;;;;;;;;9.09;79.80;96163.59;5105672;28;19960;-55
2023/03/14 03:55:00;;;;;;;;;;;;;;;9.11;79.84;96158.66;5089174;28;19924;-55
2023/03/14 03:57:30;;;;;;;;;;;;;;;9.03;79.85;96159.56;5084815;28;19978;-55
2023/03/14 03:59:58;;;;;;;;;;;;;;;9.05;79.87;96144.53;5101544;28;19931;-55
2023/03/14 04:02:26;;;;;;;;;;;;;;;9.04;79.47;96144.88;5098763;28;19931;-54
2023/03/14 04:04:54;;;;;;;;;;;;;;;9.03;79.73;96146.81;5085848;28;19928;-55
2023/03/14 04:07:22;;;;;;;;;;;;;;;8.97;78.93;96136.56;5087899;28;19935;-56
2023/03/14 04:09:50;;;;;;;;;;;;;;;8.95;79.21;96136.09;5097986;28;19931;-55
2023/03/14 04:12:33;;;;;;;;;;;;;;;8.97;79.33;96128.44;5082238;28;20011;-56
2023/03/14 04:15:08;;;;;;;;;;;;;;;8.99;79.38;96120.75;5083632;28;19928;-56
2023/03/14 04:17:39;;;;;;;;;;;;;;;8.93;79.45;96110.16;5084792;28;19951;-57
2023/03/14 04:20:10;;;;;;;;;;;;;;;8.92;79.45;96110.50;5106469;28;19928;-56
2023/03/14 04:22:38;;;;;;;;;;;;;;;8.87;79.56;96108.84;5106659;28;19924;-57
2023/03/14 04:25:06;;;;;;;;;;;;;;;8.97;79.54;96112.19;5090370;28;19931;-56
2023/03/14 04:27:41;;;;;;;;;;;;;;;9.02;78.72;96101.91;5087260;28;19934;-54
2023/03/14 04:30:17;;;;;;;;;;;;;;;8.88;79.59;96096.06;5088845;28;19931;-55
2023/03/14 04:32:51;;;;;;;;;;;;;;;8.91;79.69;96096.19;5098019;28;19950;-55
2023/03/14 04:35:20;;;;;;;;;;;;;;;8.82;79.56;96098.25;5096547;28;19928;-55
2023/03/14 04:37:49;;;;;;;;;;;;;;;8.83;79.80;96107.16;5082686;28;19924;-55
2023/03/14 04:40:18;;;;;;;;;;;;;;;8.70;79.97;96101.00;5085259;28;19993;-54
2023/03/14 04:42:47;;;;;;;;;;;;;;;8.85;79.44;96110.31;5082990;28;19923;-55
2023/03/14 04:45:16;;;;;;;;;;;;;;;8.81;79.45;96110.22;5105740;28;19924;-54
2023/03/14 04:47:44;;;;;;;;;;;;;;;8.67;79.98;96109.78;5079022;28;20386;-55
2023/03/14 04:50:15;;;;;;;;;;;;;;;8.75;80.11;96114.28;5090157;28;19964;-55
2023/03/14 04:52:44;;;;;;;;;;;;;;;8.73;80.03;96107.63;5106609;28;19932;-55
2023/03/14 04:55:15;;;;;;;;;;;;;;;8.75;80.09;96110.81;5089888;28;20316;-54
2023/03/14 04:57:43;;;;;;;;;;;;;;;8.74;80.11;96115.44;5103680;28;19967;-55
2023/03/14 05:00:13;;;;;;;;;;;;;;;8.69;80.27;96121.09;5107466;28;19981;-55
2023/03/14 05:02:53;;;;;;;;;;;;;;;8.76;79.53;96120.50;5089533;28;20010;-60
2023/03/14 05:05:20;;;;;;;;;;;;;;;8.77;79.48;96112.03;5107283;28;19927;-58
2023/03/14 05:08:21;;;;;;;;;;;;;;;8.75;79.94;96114.28;5074534;28;19928;-55
2023/03/14 05:11:07;;;;;;;;;;;;;;;8.80;79.57;96124.09;5104739;28;19934;-55
2023/03/14 05:14:04;;;;;;;;;;;;;;;8.72;80.03;96125.00;5093128;28;19924;-55
2023/03/14 05:16:59;;;;;;;;;;;;;;;8.69;79.58;96112.97;5070452;28;19931;-55
2023/03/14 05:19:48;;;;;;;;;;;;;;;8.58;79.89;96101.03;5065167;28;19962;-54
2023/03/14 05:22:52;;;;;;;;;;;;;;;8.71;80.01;96096.38;5089294;28;19928;-55
2023/03/14 05:25:43;;;;;;;;;;;;;;;8.76;79.18;96093.41;5085038;28;19951;-55
2023/03/14 05:28:22;;;;;;;;;;;;;;;8.63;79.44;96092.69;5107304;28;19951;-55
2023/03/14 05:31:25;;;;;;;;;;;;;;;8.64;79.61;96086.13;5066431;28;19924;-53
2023/03/14 05:34:05;;;;;;;;;;;;;;;8.60;80.05;96085.22;5092976;28;20331;-55
2023/03/14 05:36:39;;;;;;;;;;;;;;;8.75;79.78;96081.81;5101300;28;19926;-54
2023/03/14 05:39:39;;;;;;;;;;;;;;;8.68;79.22;96078.09;5092781;28;19923;-55
2023/03/14 05:42:32;;;;;;;;;;;;;;;8.69;79.54;96066.94;5090435;28;19932;-54
2023/03/14 05:45:26;;;;;;;;;;;;;;;8.84;78.40;96071.63;5094722;28;20343;-53
2023/03/14 05:47:53;;;;;;;;;;;;;;;8.87;78.29;96062.00;5109902;28;20422;-54
2023/03/14 05:50:39;;;;;;;;;;;;;;;8.80;78.95;96064.53;5084035;28;20403;-55
2023/03/14 05:53:35;;;;;;;;;;;;;;;8.78;78.46;96066.78;5095113;28;20014;-55
2023/03/14 05:56:33;;;;;;;;;;;;;;;8.83;78.42;96056.50;5105106;28;20470;-55
2023/03/14 05:59:30;;;;;;;;;;;;;;;8.76;78.81;96061.72;5069424;28;19975;-58
2023/03/14 06:02:37;;;;;;;;;;;;;;;8.82;78.93;96070.38;5062516;28;19925;-54
2023/03/14 06:05:14;;;;;;;;;;;;;;;8.77;78.93;96063.28;5067507;28;19933;-55
2023/03/14 06:07:43;;;;;;;;;;;;;;;8.87;78.53;96062.00;5085935;28;19955;-54
2023/03/14 06:10:11;;;;;;;;;;;;;;;8.93;78.48;96061.41;5090239;28;19931;-56
2023/03/14 06:12:39;;;;;;;;;;;;;;;8.94;78.67;96067.63;5084549;28;20284;-54
2023/03/14 06:15:10;;;;;;;;;;;;;;;8.90;78.19;96061.34;5089507;28;19950;-55
2023/03/14 06:17:39;;;;;;;;;;;;;;;8.95;78.32;96063.78;5084011;28;19924;-54
2023/03/14 06:20:11;;;;;;;;;;;;;;;8.86;78.50;96072.06;5084357;28;19950;-54
2023/03/14 06:22:40;;;;;;;;;;;;;;;9.07;78.13;96068.38;5086044;28;20363;-54
2023/03/14 06:25:10;;;;;;;;;;;;;;;9.11;77.66;96070.03;5077849;28;19924;-54
2023/03/14 06:27:38;;;;;;;;;;;;;;;8.93;77.95;96064.13;5092969;28;19924;-54
2023/03/14 06:30:10;;;;;;;;;;;;;;;9.00;77.90;96060.84;5104458;28;19932;-54
2023/03/14 06:32:38;;;;;;;;;;;;;;;8.96;78.14;96059.16;5082600;28;20444;-55
2023/03/14 06:35:10;;;;;;;;;;;;;;;9.24;77.27;96059.13;5109229;28;20019;-55
2023/03/14 06:37:41;;;;;;;;;;;;;;;9.36;76.63;96059.84;5090499;28;20015;-55
2023/03/14 06:40:12;;;;;;;;;;;;;;;9.30;76.49;96057.72;5103054;28;20017;-55
2023/03/14 06:42:50;;;;;;;;;;;;;;;9.29;77.05;96056.16;5102938;28;19923;-55
2023/03/14 06:45:20;;;;;;;;;;;;;;;9.26;76.86;96052.22;5101919;28;19924;-55
2023/03/14 06:47:49;;;;;;;;;;;;;;;9.31;76.64;96054.66;5110588;28;19923;-53
2023/03/14 06:50:22;;;;;;;;;;;;;;;9.24;76.99;96054.50;5108166;27;20010;-55
2023/03/14 06:52:50;;;;;;;;;;;;;;;9.31;77.04;96053.88;5086012;28;19931;-54
2023/03/14 06:55:24;;;;;;;;;;;;;;;9.31;76.97;96065.50;5084941;28;19931;-54
2023/03/14 06:57:53;;;;;;;;;;;;;;;9.50;76.27;96074.91;5079848;28;19924;-53
2023/03/14 07:00:21;;;;;;;;;;;;;;;9.46;76.22;96074.78;5073097;28;19924;-55
2023/03/14 07:02:53;;;;;;;;;;;;;;;9.55;75.67;96088.19;5081236;28;19924;-55
2023/03/14 07:05:28;;;;;;;;;;;;;;;9.55;75.90;96082.78;5082234;28;20573;-53
2023/03/14 07:07:56;;;;;;;;;;;;;;;9.59;75.84;96081.72;5079349;28;19931;-55
2023/03/14 07:10:25;;;;;;;;;;;;;;;9.71;75.46;96078.13;5081208;28;20261;-54
2023/03/14 07:12:53;;;;;;;;;;;;;;;9.66;75.65;96086.53;5086340;28;19959;-54
2023/03/14 07:15:25;;;;;;;;;;;;;;;9.77;75.30;96079.44;5083502;28;20339;-54
2023/03/14 07:17:57;;;;;;;;;;;;;;;9.84;75.08;96087.75;5088574;28;19951;-55
2023/03/14 07:20:26;;;;;;;;;;;;;;;9.68;75.37;96084.25;5082552;28;19924;-56
2023/03/14 07:22:54;;;;;;;;;;;;;;;9.90;74.79;96088.28;5078820;28;19951;-54
2023/03/14 07:25:34;;;;;;;;;;;;;;;9.77;74.99;96086.78;5082143;28;19935;-54
2023/03/14 07:28:02;;;;;;;;;;;;;;;9.93;74.65;96085.66;5088057;28;20007;-55
2023/03/14 07:30:30;;;;;;;;;;;;;;;9.90;74.48;96078.19;5083718;28;19931;-55
2023/03/14 07:33:00;;;;;;;;;;;;;;;10.00;74.51;96079.59;5084031;28;19924;-55
2023/03/14 07:35:28;;;;;;;;;;;;;;;10.01;74.24;96081.16;5086687;28;20309;-54
2023/03/14 07:37:56;;;;;;;;;;;;;;;10.08;73.01;96081.34;5087491;28;19924;-55
2023/03/14 07:40:31;;;;;;;;;;;;;;;10.08;73.87;96075.94;5083647;28;19967;-55
2023/03/14 07:43:01;;;;;;;;;;;;;;;10.25;73.79;96082.94;5081921;28;20027;-54
2023/03/14 07:45:41;;;;;;;;;;;;;;;10.19;73.16;96081.59;5083139;28;19982;-54
2023/03/14 07:48:11;;;;;;;;;;;;;;;10.25;73.10;96084.84;5080828;28;20433;-53
2023/03/14 07:50:39;;;;;;;;;;;;;;;10.28;73.28;96084.13;5086677;28;19939;-55
2023/03/14 07:53:06;;;;;;;;;;;;;;;10.20;73.18;96078.53;5095014;28;19924;-54
2023/03/14 07:55:34;;;;;;;;;;;;;;;10.39;72.79;96080.53;5087546;28;19925;-55
2023/03/14 07:58:04;;;;;;;;;;;;;;;10.41;72.75;96091.81;5093614;28;19925;-54
2023/03/14 08:00:31;;;;;;;;;;;;;;;10.42;71.23;96089.88;5082157;28;19933;-55
2023/03/14 08:02:59;;;;;;;;;;;;;;;10.46;71.18;96090.75;5074093;28;19930;-53
2023/03/14 08:05:27;;;;;;;;;;;;;;;10.32;71.28;96088.50;5080506;28;21593;-53
2023/03/14 08:07:55;;;;;;;;;;;;;;;10.32;71.84;96090.44;5073524;28;19924;-54
2023/03/14 08:10:23;;;;;;;;;;;;;;;10.52;71.44;96085.84;5082596;28;21807;-54
2023/03/14 08:12:54;;;;;;;;;;;;;;;10.42;71.81;96085.25;5075956;28;20034;-54
2023/03/14 08:15:24;;;;;;;;;;;;;;;10.53;71.57;96087.41;5079693;28;19924;-53
2023/03/14 08:17:53;;;;;;;;;;;;;;;10.76;70.37;96080.16;5083577;28;20014;-54
2023/03/14 08:20:21;;;;;;;;;;;;;;;10.90;69.96;96083.16;5079264;28;19970;-55
2023/03/14 08:22:49;;;;;;;;;;;;;;;10.80;70.48;96078.28;5084206;28;19931;-58
2023/03/14 08:25:17;;;;;;;;;;;;;;;10.82;70.91;96070.56;5083805;28;19928;-54
2023/03/14 08:27:45;;;;;;;;;;;;;;;11.10;70.17;96078.50;5083771;28;20005;-54
2023/03/14 08:30:14;;;;;;;;;;;;;;;11.12;69.18;96065.31;5092068;28;19928;-54
2023/03/14 08:32:43;;;;;;;;;;;;;;;11.16;69.00;96068.13;5086914;28;20683;-54
2023/03/14 08:35:11;;;;;;;;;;;;;;;11.33;68.84;96064.94;5087675;28;20270;-54
2023/03/14 08:37:39;;;;;;;;;;;;;;;11.48;67.94;96065.97;5086196;28;19924;-55
2023/03/14 08:40:09;;;;;;;;;;;;;;;11.30;67.12;96068.38;5096712;28;19962;-54
2023/03/14 08:42:37;;;;;;;;;;;;;;;11.40;66.75;96062.38;5100368;28;19927;-54
2023/03/14 08:45:05;;;;;;;;;;;;;;;11.38;66.09;96063.84;5106035;28;19950;-54
2023/03/14 08:47:34;;;;;;;;;;;;;;;11.54;66.09;96050.94;5088412;28;19924;-54
2023/03/14 08:50:03;;;;;;;;;;;;;;;11.55;65.43;96047.06;5089706;28;19932;-54
2023/03/14 08:52:31;;;;;;;;;;;;;;;11.69;65.89;96043.81;5089849;28;19934;-53
2023/03/14 08:54:59;;;;;;;;;;;;;;;11.64;64.61;96055.00;5099596;28;20576;-57
2023/03/14 08:57:27;;;;;;;;;;;;;;;11.59;63.46;96050.63;5102951;28;19942;-55
2023/03/14 08:59:56;;;;;;;;;;;;;;;11.80;64.49;96052.91;5102726;28;19949;-54
2023/03/14 09:02:23;;;;;;;;;;;;;;;11.82;62.85;96050.63;5104845;28;19935;-54
2023/03/14 09:04:51;;;;;;;;;;;;;;;11.82;62.53;96050.63;5097494;28;19950;-54
2023/03/14 09:07:21;;;;;;;;;;;;;;;11.70;63.00;96042.66;5105572;28;20303;-57
2023/03/14 09:09:48;;;;;;;;;;;;;;;11.79;63.15;96056.78;5099626;28;19962;-54
2023/03/14 09:12:16;;;;;;;;;;;;;;;11.79;62.75;96051.34;5103288;28;19934;-54
2023/03/14 09:14:44;;;;;;;;;;;;;;;11.87;61.68;96047.63;5094669;28;19934;-55
2023/03/14 09:17:12;;;;;;;;;;;;;;;11.93;61.79;96045.38;5099759;28;19935;-55
2023/03/14 09:19:40;;;;;;;;;;;;;;;12.01;61.37;96036.19;5098580;28;19974;-57
2023/03/14 09:22:07;;;;;;;;;;;;;;;12.03;61.54;96034.66;5107024;28;19973;-54
2023/03/14 09:24:37;;;;;;;;;;;;;;;12.19;60.41;96030.97;5096871;28;20354;-55
2023/03/14 09:27:04;;;;;;;;;;;;;;;12.57;59.94;96036.19;5099148;28;19958;-54
2023/03/14 09:29:33;;;;;;;;;;;;;;;12.67;59.06;96032.00;5098070;28;19959;-54
2023/03/14 09:32:00;;;;;;;;;;;;;;;12.82;58.43;96035.69;5098132;28;20398;-54
2023/03/14 09:34:28;;;;;;;;;;;;;;;13.08;58.20;96032.88;5084661;28;19928;-55
2023/03/14 09:36:56;;;;;;;;;;;;;;;13.07;58.49;96039.50;5104281;28;20381;-59
2023/03/14 09:39:25;;;;;;;;;;;;;;;13.06;57.50;96035.22;5080963;28;19928;-55
2023/03/14 09:41:54;;;;;;;;;;;;;;;12.96;57.76;96035.09;5073210;28;19928;-54
2023/03/14 09:44:23;;;;;;;;;;;;;;;12.56;59.02;96033.81;5098753;28;19934;-53
2023/03/14 09:46:52;;;;;;;;;;;;;;;12.61;59.48;96040.88;5082101;28;20263;-54
2023/03/14 09:49:23;;;;;;;;;;;;;;;12.53;58.64;96035.34;5096261;28;19928;-53
2023/03/14 09:51:52;;;;;;;;;;;;;;;12.39;58.70;96034.38;5088761;28;19924;-55
2023/03/14 09:54:42;;;;;;;;;;;;;;;12.11;59.52;96035.56;5092121;28;19939;-54
2023/03/14 09:57:13;;;;;;;;;;;;;;;12.10;59.96;96044.09;5086028;28;19925;-55
2023/03/14 09:59:41;;;;;;;;;;;;;;;12.23;60.18;96037.25;5074270;28;19932;-55
2023/03/14 10:02:13;;;;;;;;;;;;;;;12.32;60.98;96035.06;5086171;28;19924;-54
2023/03/14 10:04:44;;;;;;;;;;;;;;;12.23;59.51;96032.59;5076603;28;19929;-54
2023/03/14 10:07:13;;;;;;;;;;;;;;;12.11;60.38;96030.09;5079252;28;19925;-55
2023/03/14 10:09:41;;;;;;;;;;;;;;;12.20;60.17;96032.56;5084263;28;19928;-54
2023/03/14 10:12:09;;;;;;;;;;;;;;;12.18;60.48;96032.91;5079304;28;20296;-55
2023/03/14 10:14:39;;;;;;;;;;;;;;;12.22;60.36;96025.59;5085954;28;19929;-52
2023/03/14 10:17:09;;;;;;;;;;;;;;;12.26;59.91;96025.66;5084930;28;20486;-58
2023/03/14 10:19:37;;;;;;;;;;;;;;;12.28;60.40;96028.78;5081289;28;19924;-55
2023/03/14 10:22:06;;;;;;;;;;;;;;;12.39;59.59;96018.03;5079397;28;19951;-54
2023/03/14 10:24:34;;;;;;;;;;;;;;;12.42;59.68;96009.94;5096218;28;20282;-55
2023/03/14 10:27:03;;;;;;;;;;;;;;;12.53;59.42;96010.84;5081213;28;20084;-54
2023/03/14 10:29:31;;;;;;;;;;;;;;;12.63;59.00;96012.13;5080961;28;19939;-54
2023/03/14 10:32:01;;;;;;;;;;;;;;;12.55;58.79;96013.97;5085554;28;19943;-54
2023/03/14 10:34:32;;;;;;;;;;;;;;;12.50;58.80;96019.75;5083775;28;19931;-54
2023/03/14 10:37:00;;;;;;;;;;;;;;;12.46;59.21;96013.47;5085010;28;19939;-53
2023/03/14 10:39:29;;;;;;;;;;;;;;;12.47;59.13;96004.16;5089254;28;19932;-54
2023/03/14 10:42:03;;;;;;;;;;;;;;;12.58;58.47;96007.78;5103647;28;19928;-54
2023/03/14 10:44:31;;;;;;;;;;;;;;;12.65;58.39;96004.38;5094349;28;19931;-55
2023/03/14 10:47:01;;;;;;;;;;;;;;;12.79;56.80;96006.50;5104329;28;20314;-53
2023/03/14 10:49:29;;;;;;;;;;;;;;;12.74;56.75;96012.25;5102932;28;19989;-54
2023/03/14 10:51:59;;;;;;;;;;;;;;;12.66;57.79;96005.16;5100452;28;20005;-55
2023/03/14 10:54:30;;;;;;;;;;;;;;;12.51;56.73;96007.69;5097895;28;19931;-53
2023/03/14 10:56:58;;;;;;;;;;;;;;;12.42;56.07;96014.59;5083977;28;19939;-56
2023/03/14 10:59:25;;;;;;;;;;;;;;;12.35;56.84;96015.25;5105001;28;20456;-55
2023/03/14 11:01:55;;;;;;;;;;;;;;;12.32;57.38;96018.72;5084079;28;19925;-56
2023/03/14 11:04:31;;;;;;;;;;;;;;;12.19;57.42;96025.53;5105341;28;20364;-55
2023/03/14 11:07:01;;;;;;;;;;;;;;;12.06;58.50;96035.88;5104832;28;19962;-55
2023/03/14 11:09:30;;;;;;;;;;;;;;;12.06;58.49;96039.38;5092657;28;20562;-54
2023/03/14 11:12:01;;;;;;;;;;;;;;;11.99;59.21;96042.00;5102583;28;19928;-56
2023/03/14 11:14:31;;;;;;;;;;;;;;;11.92;59.61;96041.88;5107130;28;20010;-56
2023/03/14 11:17:01;;;;;;;;;;;;;;;11.89;59.75;96045.34;5110618;28;19967;-55
2023/03/14 11:19:50;;;;;;;;;;;;;;;11.83;61.38;96046.78;5107115;28;19931;-55
2023/03/14 11:22:22;;;;;;;;;;;;;;;11.87;60.28;96044.88;5101480;28;19938;-55
2023/03/14 11:24:54;;;;;;;;;;;;;;;11.99;60.50;96038.50;5106909;28;19946;-56
2023/03/14 11:27:26;;;;;;;;;;;;;;;11.90;61.63;96052.34;5105849;27;19950;-55
2023/03/14 11:29:56;;;;;;;;;;;;;;;11.87;61.31;96053.06;5102713;28;19942;-53
2023/03/14 11:32:27;;;;;;;;;;;;;;;11.93;62.66;96050.81;5100483;28;20307;-52
2023/03/14 11:34:55;;;;;;;;;;;;;;;12.11;63.90;96042.94;5077727;28;19924;-53
2023/03/14 11:37:26;;;;;;;;;;;;;;;12.55;63.49;96034.97;5093661;28;19924;-52
2023/03/14 11:39:57;;;;;;;;;;;;;;;12.95;63.00;96022.63;5109371;28;19928;-53
2023/03/14 11:42:25;;;;;;;;;;;;;;;13.14;61.98;96024.38;5101650;28;19924;-57
2023/03/14 11:44:53;;;;;;;;;;;;;;;13.39;60.50;96025.44;5080246;28;19935;-52
2023/03/14 11:47:21;;;;;;;;;;;;;;;13.13;59.71;96009.19;5100728;28;20388;-52
2023/03/14 11:49:50;;;;;;;;;;;;;;;13.13;60.10;96007.25;5100490;28;19947;-53
2023/03/14 11:52:20;;;;;;;;;;;;;;;12.93;60.18;96006.63;5105204;28;19936;-53
2023/03/14 11:54:50;;;;;;;;;;;;;;;12.80;61.10;96002.59;5098081;28;20340;-56
2023/03/14 11:57:19;;;;;;;;;;;;;;;12.68;61.18;96002.84;5105731;28;20322;-54
2023/03/14 11:59:48;;;;;;;;;;;;;;;12.68;61.35;96000.13;5093190;28;20032;-53
2023/03/14 12:02:18;;;;;;;;;;;;;;;12.53;61.91;96002.66;5108748;28;20376;-54
2023/03/14 12:04:50;;;;;;;;;;;;;;;12.39;62.22;95997.03;5102347;28;19924;-53
2023/03/14 12:07:19;;;;;;;;;;;;;;;12.45;62.13;95994.78;5109647;28;19947;-53
2023/03/14 12:09:49;;;;;;;;;;;;;;;12.51;60.62;95976.94;5108568;28;20296;-54
2023/03/14 12:12:19;;;;;;;;;;;;;;;12.59;61.19;95984.06;5094997;28;19931;-53
2023/03/14 12:14:48;;;;;;;;;;;;;;;13.10;58.77;95984.25;5115452;28;19923;-52
2023/03/14 12:17:19;;;;;;;;;;;;;;;13.54;58.59;95980.00;5114783;28;19936;-57
2023/03/14 12:19:47;;;;;;;;;;;;;;;13.93;56.16;95982.22;5104269;28;19924;-57
2023/03/14 12:22:21;;;;;;;;;;;;;;;13.97;54.46;95978.34;5116513;28;19923;-56
2023/03/14 12:24:52;;;;;;;;;;;;;;;13.94;54.98;95979.09;5117058;28;19932;-57
2023/03/14 12:27:38;;;;;;;;;;;;;;;13.69;54.73;95983.59;5107820;28;19928;-56
2023/03/14 12:30:07;;;;;;;;;;;;;;;13.34;55.10;95980.19;5111083;28;19928;-56
2023/03/14 12:32:35;;;;;;;;;;;;;;;13.26;54.81;95966.88;5104070;28;20300;-57
2023/03/14 12:35:08;;;;;;;;;;;;;;;13.27;54.39;95963.00;5115203;28;19954;-56
2023/03/14 12:37:36;;;;;;;;;;;;;;;13.29;53.71;95975.09;5086785;28;19973;-55
2023/03/14 12:40:17;;;;;;;;;;;;;;;13.38;54.05;95958.44;5107333;28;19935;-56
2023/03/14 12:42:58;;;;;;;;;;;;;;;13.53;53.07;95962.03;5105001;28;19927;-55
2023/03/14 12:45:27;;;;;;;;;;;;;;;13.55;52.87;95957.00;5105333;28;20281;-56
2023/03/14 12:48:16;;;;;;;;;;;;;;;13.52;52.20;95957.75;5111046;28;20482;-54
2023/03/14 12:50:47;;;;;;;;;;;;;;;13.50;52.65;95949.16;5105403;28;21529;-52
2023/03/14 12:53:35;;;;;;;;;;;;;;;13.40;52.64;95958.03;5103721;28;19924;-55
2023/03/14 12:56:07;;;;;;;;;;;;;;;13.18;52.70;95948.84;5077797;28;20304;-55
2023/03/14 12:58:36;;;;;;;;;;;;;;;13.05;54.12;95959.28;5103864;28;19923;-55
2023/03/14 13:01:07;;;;;;;;;;;;;;;12.97;54.38;95974.75;5109376;28;19928;-56
2023/03/14 13:03:39;;;;;;;;;;;;;;;12.88;56.40;95989.81;5098510;28;19931;-55
2023/03/14 13:06:09;;;;;;;;;;;;;;;12.50;58.96;96006.13;5109659;28;19981;-57
2023/03/14 13:08:38;;;;;;;;;;;;;;;12.37;61.00;96012.97;5098901;28;19928;-56
2023/03/14 13:11:09;;;;;;;;;;;;;;;12.09;61.39;96013.38;5087235;28;19982;-56
2023/03/14 13:13:38;;;;;;;;;;;;;;;11.84;61.13;96021.16;5104025;28;19928;-56
2023/03/14 13:16:06;;;;;;;;;;;;;;;11.71;63.24;96022.44;5111662;28;19931;-56